sensor_id;sensor_type;location;lat;lon;timestamp;P1;durP1;ratioP1;P2;durP2;ratioP2
7110;SDS011;3597;42.650;23.386;2023-03-23T00:02:04;7.07;;;6.37;;
7110;SDS011;3597;42.650;23.386;2023-03-23T00:04:29;6.47;;;6.00;;
7110;SDS011;3597;42.650;23.386;2023-03-23T00:06:55;7.00;;;6.30;;
7110;SDS011;3597;42.650;23.386;2023-03-23T00:09:20;6.97;;;6.43;;
7110;SDS011;3597;42.650;23.386;2023-03-23T00:11:49;5.30;;;4.87;;
7110;SDS011;3597;42.650;23.386;2023-03-23T00:14:15;6.67;;;5.97;;
7110;SDS011;3597;42.650;23.386;2023-03-23T00:16:41;6.50;;;5.90;;
7110;SDS011;3597;42.650;23.386;2023-03-23T00:19:09;6.00;;;5.50;;
7110;SDS011;3597;42.650;23.386;2023-03-23T00:21:38;6.03;;;5.53;;
7110;SDS011;3597;42.650;23.386;2023-03-23T00:26:42;6.13;;;5.83;;
7110;SDS011;3597;42.650;23.386;2023-03-23T00:29:16;6.30;;;5.90;;
7110;SDS011;3597;42.650;23.386;2023-03-23T00:31:46;4.90;;;4.70;;
7110;SDS011;3597;42.650;23.386;2023-03-23T00:34:12;4.87;;;4.57;;
7110;SDS011;3597;42.650;23.386;2023-03-23T00:36:43;4.37;;;4.03;;
7110;SDS011;3597;42.650;23.386;2023-03-23T00:39:09;4.63;;;4.43;;
7110;SDS011;3597;42.650;23.386;2023-03-23T00:41:35;3.83;;;3.63;;
7110;SDS011;3597;42.650;23.386;2023-03-23T00:44:01;3.93;;;3.70;;
7110;SDS011;3597;42.650;23.386;2023-03-23T00:46:27;3.60;;;3.40;;
7110;SDS011;3597;42.650;23.386;2023-03-23T00:48:53;3.00;;;2.80;;
7110;SDS011;3597;42.650;23.386;2023-03-23T00:51:21;2.73;;;2.73;;
7110;SDS011;3597;42.650;23.386;2023-03-23T00:53:48;2.67;;;2.57;;
7110;SDS011;3597;42.650;23.386;2023-03-23T00:56:13;2.63;;;2.47;;
7110;SDS011;3597;42.650;23.386;2023-03-23T00:58:39;2.67;;;2.67;;
7110;SDS011;3597;42.650;23.386;2023-03-23T01:01:05;2.77;;;2.67;;
7110;SDS011;3597;42.650;23.386;2023-03-23T01:03:30;2.30;;;2.30;;
7110;SDS011;3597;42.650;23.386;2023-03-23T01:05:56;2.60;;;2.50;;
7110;SDS011;3597;42.650;23.386;2023-03-23T01:08:22;2.73;;;2.63;;
7110;SDS011;3597;42.650;23.386;2023-03-23T01:10:49;2.67;;;2.57;;
7110;SDS011;3597;42.650;23.386;2023-03-23T01:13:14;2.77;;;2.67;;
7110;SDS011;3597;42.650;23.386;2023-03-23T01:15:41;3.50;;;3.40;;
7110;SDS011;3597;42.650;23.386;2023-03-23T01:18:07;3.07;;;2.87;;
7110;SDS011;3597;42.650;23.386;2023-03-23T01:20:33;3.23;;;3.03;;
7110;SDS011;3597;42.650;23.386;2023-03-23T01:23:00;2.63;;;2.53;;
7110;SDS011;3597;42.650;23.386;2023-03-23T01:25:27;2.63;;;2.53;;
7110;SDS011;3597;42.650;23.386;2023-03-23T01:27:53;2.53;;;2.43;;
7110;SDS011;3597;42.650;23.386;2023-03-23T01:30:18;3.07;;;2.97;;
7110;SDS011;3597;42.650;23.386;2023-03-23T01:32:44;3.17;;;3.07;;
7110;SDS011;3597;42.650;23.386;2023-03-23T01:35:11;2.50;;;2.40;;
7110;SDS011;3597;42.650;23.386;2023-03-23T01:37:37;3.70;;;3.50;;
7110;SDS011;3597;42.650;23.386;2023-03-23T01:40:03;3.07;;;2.97;;
7110;SDS011;3597;42.650;23.386;2023-03-23T01:42:30;3.30;;;3.20;;
7110;SDS011;3597;42.650;23.386;2023-03-23T01:45:32;3.40;;;3.13;;
7110;SDS011;3597;42.650;23.386;2023-03-23T01:48:05;3.93;;;3.43;;
7110;SDS011;3597;42.650;23.386;2023-03-23T01:50:36;4.10;;;3.90;;
7110;SDS011;3597;42.650;23.386;2023-03-23T01:53:06;4.30;;;4.00;;
7110;SDS011;3597;42.650;23.386;2023-03-23T01:55:33;4.27;;;4.07;;
7110;SDS011;3597;42.650;23.386;2023-03-23T01:58:00;5.23;;;4.57;;
7110;SDS011;3597;42.650;23.386;2023-03-23T02:00:25;4.83;;;4.63;;
7110;SDS011;3597;42.650;23.386;2023-03-23T02:02:50;4.53;;;4.33;;
7110;SDS011;3597;42.650;23.386;2023-03-23T02:05:26;6.30;;;4.07;;
7110;SDS011;3597;42.650;23.386;2023-03-23T02:07:56;5.00;;;4.63;;
7110;SDS011;3597;42.650;23.386;2023-03-23T02:10:27;5.67;;;5.27;;
7110;SDS011;3597;42.650;23.386;2023-03-23T02:12:52;4.90;;;4.60;;
7110;SDS011;3597;42.650;23.386;2023-03-23T02:15:18;3.00;;;2.90;;
7110;SDS011;3597;42.650;23.386;2023-03-23T02:17:52;2.43;;;2.43;;
7110;SDS011;3597;42.650;23.386;2023-03-23T02:25:41;3.30;;;3.10;;
7110;SDS011;3597;42.650;23.386;2023-03-23T02:28:49;3.70;;;3.50;;
7110;SDS011;3597;42.650;23.386;2023-03-23T02:34:17;2.60;;;2.50;;
7110;SDS011;3597;42.650;23.386;2023-03-23T02:36:52;3.73;;;3.47;;
7110;SDS011;3597;42.650;23.386;2023-03-23T02:39:25;3.10;;;3.00;;
7110;SDS011;3597;42.650;23.386;2023-03-23T02:42:02;3.60;;;3.50;;
7110;SDS011;3597;42.650;23.386;2023-03-23T02:44:29;3.90;;;3.60;;
7110;SDS011;3597;42.650;23.386;2023-03-23T02:46:57;3.40;;;3.17;;
7110;SDS011;3597;42.650;23.386;2023-03-23T02:49:23;3.30;;;3.10;;
7110;SDS011;3597;42.650;23.386;2023-03-23T02:51:50;3.20;;;3.10;;
7110;SDS011;3597;42.650;23.386;2023-03-23T02:54:17;2.93;;;2.83;;
7110;SDS011;3597;42.650;23.386;2023-03-23T02:56:43;3.07;;;2.97;;
7110;SDS011;3597;42.650;23.386;2023-03-23T02:59:10;3.20;;;3.00;;
7110;SDS011;3597;42.650;23.386;2023-03-23T03:04:05;3.23;;;3.13;;
7110;SDS011;3597;42.650;23.386;2023-03-23T03:09:14;3.33;;;3.03;;
7110;SDS011;3597;42.650;23.386;2023-03-23T03:11:48;3.40;;;3.30;;
7110;SDS011;3597;42.650;23.386;2023-03-23T03:14:19;3.00;;;2.90;;
7110;SDS011;3597;42.650;23.386;2023-03-23T03:19:49;2.43;;;2.43;;
7110;SDS011;3597;42.650;23.386;2023-03-23T03:22:16;3.27;;;3.07;;
7110;SDS011;3597;42.650;23.386;2023-03-23T03:24:42;2.40;;;2.40;;
7110;SDS011;3597;42.650;23.386;2023-03-23T03:27:15;2.13;;;2.13;;
7110;SDS011;3597;42.650;23.386;2023-03-23T03:29:43;2.97;;;2.87;;
7110;SDS011;3597;42.650;23.386;2023-03-23T03:32:15;3.43;;;3.27;;
7110;SDS011;3597;42.650;23.386;2023-03-23T03:34:43;2.97;;;2.77;;
7110;SDS011;3597;42.650;23.386;2023-03-23T03:37:09;2.70;;;2.63;;
7110;SDS011;3597;42.650;23.386;2023-03-23T03:39:36;2.60;;;2.50;;
7110;SDS011;3597;42.650;23.386;2023-03-23T03:42:03;2.67;;;2.57;;
7110;SDS011;3597;42.650;23.386;2023-03-23T03:44:29;2.67;;;2.47;;
7110;SDS011;3597;42.650;23.386;2023-03-23T03:46:54;2.13;;;2.13;;
7110;SDS011;3597;42.650;23.386;2023-03-23T03:49:20;2.50;;;2.50;;
7110;SDS011;3597;42.650;23.386;2023-03-23T03:51:45;2.50;;;2.40;;
7110;SDS011;3597;42.650;23.386;2023-03-23T03:54:11;2.03;;;1.93;;
7110;SDS011;3597;42.650;23.386;2023-03-23T03:56:36;1.90;;;1.90;;
7110;SDS011;3597;42.650;23.386;2023-03-23T03:59:05;1.93;;;1.93;;
7110;SDS011;3597;42.650;23.386;2023-03-23T04:01:33;2.10;;;2.00;;
7110;SDS011;3597;42.650;23.386;2023-03-23T04:03:58;2.33;;;2.23;;
7110;SDS011;3597;42.650;23.386;2023-03-23T04:06:24;2.90;;;2.80;;
7110;SDS011;3597;42.650;23.386;2023-03-23T04:08:52;2.50;;;2.33;;
7110;SDS011;3597;42.650;23.386;2023-03-23T04:11:21;2.43;;;2.33;;
7110;SDS011;3597;42.650;23.386;2023-03-23T04:13:46;2.57;;;2.47;;
7110;SDS011;3597;42.650;23.386;2023-03-23T04:16:11;3.07;;;2.87;;
7110;SDS011;3597;42.650;23.386;2023-03-23T04:18:37;2.20;;;2.10;;
7110;SDS011;3597;42.650;23.386;2023-03-23T04:21:03;2.40;;;2.23;;
7110;SDS011;3597;42.650;23.386;2023-03-23T04:23:30;2.00;;;1.90;;
7110;SDS011;3597;42.650;23.386;2023-03-23T04:25:58;2.73;;;2.63;;
7110;SDS011;3597;42.650;23.386;2023-03-23T04:28:24;2.60;;;2.50;;
7110;SDS011;3597;42.650;23.386;2023-03-23T04:30:50;2.70;;;2.60;;
7110;SDS011;3597;42.650;23.386;2023-03-23T04:33:19;2.27;;;2.27;;
7110;SDS011;3597;42.650;23.386;2023-03-23T04:35:46;3.27;;;3.07;;
7110;SDS011;3597;42.650;23.386;2023-03-23T04:38:13;2.90;;;2.70;;
7110;SDS011;3597;42.650;23.386;2023-03-23T04:40:40;2.90;;;2.70;;
7110;SDS011;3597;42.650;23.386;2023-03-23T04:43:06;3.87;;;3.77;;
7110;SDS011;3597;42.650;23.386;2023-03-23T04:45:33;2.80;;;2.70;;
7110;SDS011;3597;42.650;23.386;2023-03-23T04:47:59;2.67;;;2.57;;
7110;SDS011;3597;42.650;23.386;2023-03-23T04:50:29;2.53;;;2.43;;
7110;SDS011;3597;42.650;23.386;2023-03-23T04:52:56;2.40;;;2.30;;
7110;SDS011;3597;42.650;23.386;2023-03-23T04:55:24;3.13;;;3.03;;
7110;SDS011;3597;42.650;23.386;2023-03-23T04:57:50;2.97;;;2.87;;
7110;SDS011;3597;42.650;23.386;2023-03-23T05:00:17;2.60;;;2.57;;
7110;SDS011;3597;42.650;23.386;2023-03-23T05:02:46;2.50;;;2.40;;
7110;SDS011;3597;42.650;23.386;2023-03-23T05:05:12;2.63;;;2.53;;
7110;SDS011;3597;42.650;23.386;2023-03-23T05:07:38;15.07;;;14.40;;
7110;SDS011;3597;42.650;23.386;2023-03-23T05:10:05;3.00;;;2.80;;
7110;SDS011;3597;42.650;23.386;2023-03-23T05:12:32;2.63;;;2.63;;
7110;SDS011;3597;42.650;23.386;2023-03-23T05:14:58;3.97;;;3.77;;
7110;SDS011;3597;42.650;23.386;2023-03-23T05:17:23;3.17;;;3.07;;
7110;SDS011;3597;42.650;23.386;2023-03-23T05:19:52;3.50;;;3.30;;
7110;SDS011;3597;42.650;23.386;2023-03-23T05:22:17;2.87;;;2.80;;
7110;SDS011;3597;42.650;23.386;2023-03-23T05:24:45;2.60;;;2.50;;
7110;SDS011;3597;42.650;23.386;2023-03-23T05:27:12;3.20;;;3.00;;
7110;SDS011;3597;42.650;23.386;2023-03-23T05:29:37;2.90;;;2.80;;
7110;SDS011;3597;42.650;23.386;2023-03-23T05:32:05;2.87;;;2.77;;
7110;SDS011;3597;42.650;23.386;2023-03-23T05:34:32;3.50;;;3.30;;
7110;SDS011;3597;42.650;23.386;2023-03-23T05:36:58;3.33;;;3.20;;
7110;SDS011;3597;42.650;23.386;2023-03-23T05:39:25;5.30;;;4.80;;
7110;SDS011;3597;42.650;23.386;2023-03-23T05:41:51;4.27;;;4.10;;
7110;SDS011;3597;42.650;23.386;2023-03-23T05:44:17;3.73;;;3.53;;
7110;SDS011;3597;42.650;23.386;2023-03-23T05:46:44;4.20;;;3.77;;
7110;SDS011;3597;42.650;23.386;2023-03-23T05:49:09;3.80;;;3.70;;
7110;SDS011;3597;42.650;23.386;2023-03-23T05:51:35;4.03;;;3.87;;
7110;SDS011;3597;42.650;23.386;2023-03-23T05:54:00;3.73;;;3.53;;
7110;SDS011;3597;42.650;23.386;2023-03-23T05:56:26;4.40;;;4.20;;
7110;SDS011;3597;42.650;23.386;2023-03-23T05:58:53;4.60;;;4.20;;
7110;SDS011;3597;42.650;23.386;2023-03-23T06:01:19;4.57;;;4.27;;
7110;SDS011;3597;42.650;23.386;2023-03-23T06:03:44;4.90;;;4.70;;
7110;SDS011;3597;42.650;23.386;2023-03-23T06:06:10;7.63;;;4.70;;
7110;SDS011;3597;42.650;23.386;2023-03-23T06:08:36;5.70;;;5.40;;
7110;SDS011;3597;42.650;23.386;2023-03-23T06:11:02;6.77;;;6.33;;
7110;SDS011;3597;42.650;23.386;2023-03-23T06:13:28;10.23;;;9.53;;
7110;SDS011;3597;42.650;23.386;2023-03-23T06:15:56;8.83;;;8.43;;
7110;SDS011;3597;42.650;23.386;2023-03-23T06:18:22;11.63;;;11.20;;
7110;SDS011;3597;42.650;23.386;2023-03-23T06:20:48;6.23;;;6.03;;
7110;SDS011;3597;42.650;23.386;2023-03-23T06:23:14;3.90;;;3.80;;
7110;SDS011;3597;42.650;23.386;2023-03-23T06:25:39;3.03;;;2.93;;
7110;SDS011;3597;42.650;23.386;2023-03-23T06:28:04;1.97;;;1.93;;
7110;SDS011;3597;42.650;23.386;2023-03-23T06:30:31;2.03;;;2.03;;
7110;SDS011;3597;42.650;23.386;2023-03-23T06:32:56;2.30;;;2.30;;
7110;SDS011;3597;42.650;23.386;2023-03-23T06:35:22;2.60;;;2.50;;
7110;SDS011;3597;42.650;23.386;2023-03-23T06:37:48;3.07;;;3.07;;
7110;SDS011;3597;42.650;23.386;2023-03-23T06:40:13;2.50;;;2.40;;
7110;SDS011;3597;42.650;23.386;2023-03-23T06:42:38;2.77;;;2.67;;
7110;SDS011;3597;42.650;23.386;2023-03-23T06:45:04;2.67;;;2.67;;
7110;SDS011;3597;42.650;23.386;2023-03-23T06:47:30;3.17;;;3.07;;
7110;SDS011;3597;42.650;23.386;2023-03-23T06:49:56;2.97;;;2.87;;
7110;SDS011;3597;42.650;23.386;2023-03-23T06:52:22;2.80;;;2.70;;
7110;SDS011;3597;42.650;23.386;2023-03-23T06:54:48;2.80;;;2.70;;
7110;SDS011;3597;42.650;23.386;2023-03-23T06:57:14;2.60;;;2.50;;
7110;SDS011;3597;42.650;23.386;2023-03-23T06:59:40;3.23;;;3.13;;
7110;SDS011;3597;42.650;23.386;2023-03-23T07:02:08;3.33;;;3.13;;
7110;SDS011;3597;42.650;23.386;2023-03-23T07:04:34;2.87;;;2.77;;
7110;SDS011;3597;42.650;23.386;2023-03-23T07:07:00;2.80;;;2.70;;
7110;SDS011;3597;42.650;23.386;2023-03-23T07:09:26;3.63;;;3.53;;
7110;SDS011;3597;42.650;23.386;2023-03-23T07:11:51;3.20;;;3.10;;
7110;SDS011;3597;42.650;23.386;2023-03-23T07:14:17;3.47;;;3.37;;
7110;SDS011;3597;42.650;23.386;2023-03-23T07:16:42;3.40;;;3.13;;
7110;SDS011;3597;42.650;23.386;2023-03-23T07:19:08;3.87;;;3.67;;
7110;SDS011;3597;42.650;23.386;2023-03-23T07:21:33;3.40;;;3.30;;
7110;SDS011;3597;42.650;23.386;2023-03-23T07:23:58;8.80;;;4.20;;
7110;SDS011;3597;42.650;23.386;2023-03-23T07:26:24;5.40;;;5.10;;
7110;SDS011;3597;42.650;23.386;2023-03-23T07:28:49;5.43;;;5.03;;
7110;SDS011;3597;42.650;23.386;2023-03-23T07:31:15;5.23;;;4.97;;
7110;SDS011;3597;42.650;23.386;2023-03-23T07:33:41;5.07;;;4.77;;
7110;SDS011;3597;42.650;23.386;2023-03-23T07:36:06;5.00;;;4.70;;
7110;SDS011;3597;42.650;23.386;2023-03-23T07:38:33;5.73;;;5.23;;
7110;SDS011;3597;42.650;23.386;2023-03-23T07:40:58;4.93;;;4.73;;
7110;SDS011;3597;42.650;23.386;2023-03-23T07:43:24;12.87;;;4.87;;
7110;SDS011;3597;42.650;23.386;2023-03-23T07:45:49;5.87;;;4.70;;
7110;SDS011;3597;42.650;23.386;2023-03-23T07:48:15;5.70;;;4.97;;
7110;SDS011;3597;42.650;23.386;2023-03-23T07:50:40;5.03;;;4.70;;
7110;SDS011;3597;42.650;23.386;2023-03-23T07:53:06;5.33;;;5.03;;
7110;SDS011;3597;42.650;23.386;2023-03-23T07:55:32;12.47;;;5.73;;
7110;SDS011;3597;42.650;23.386;2023-03-23T07:57:58;10.33;;;5.50;;
7110;SDS011;3597;42.650;23.386;2023-03-23T08:00:24;7.50;;;5.47;;
7110;SDS011;3597;42.650;23.386;2023-03-23T08:02:50;5.40;;;5.00;;
7110;SDS011;3597;42.650;23.386;2023-03-23T08:05:17;4.63;;;4.43;;
7110;SDS011;3597;42.650;23.386;2023-03-23T08:07:44;5.40;;;5.00;;
7110;SDS011;3597;42.650;23.386;2023-03-23T08:10:10;5.37;;;4.97;;
7110;SDS011;3597;42.650;23.386;2023-03-23T08:12:37;5.00;;;4.67;;
7110;SDS011;3597;42.650;23.386;2023-03-23T08:15:04;4.43;;;4.20;;
7110;SDS011;3597;42.650;23.386;2023-03-23T08:17:31;9.83;;;4.97;;
7110;SDS011;3597;42.650;23.386;2023-03-23T08:19:56;4.20;;;3.80;;
7110;SDS011;3597;42.650;23.386;2023-03-23T08:22:23;4.37;;;4.17;;
7110;SDS011;3597;42.650;23.386;2023-03-23T08:24:48;4.03;;;3.93;;
7110;SDS011;3597;42.650;23.386;2023-03-23T08:27:13;4.90;;;4.40;;
7110;SDS011;3597;42.650;23.386;2023-03-23T08:29:39;4.10;;;3.90;;
7110;SDS011;3597;42.650;23.386;2023-03-23T08:32:05;4.23;;;4.03;;
7110;SDS011;3597;42.650;23.386;2023-03-23T08:34:31;3.63;;;3.33;;
7110;SDS011;3597;42.650;23.386;2023-03-23T08:36:57;4.03;;;3.83;;
7110;SDS011;3597;42.650;23.386;2023-03-23T08:39:23;4.13;;;3.93;;
7110;SDS011;3597;42.650;23.386;2023-03-23T08:41:50;3.77;;;3.47;;
7110;SDS011;3597;42.650;23.386;2023-03-23T08:44:15;3.33;;;3.23;;
7110;SDS011;3597;42.650;23.386;2023-03-23T08:46:40;3.00;;;2.90;;
7110;SDS011;3597;42.650;23.386;2023-03-23T08:49:06;5.70;;;3.67;;
7110;SDS011;3597;42.650;23.386;2023-03-23T08:51:32;3.50;;;3.40;;
7110;SDS011;3597;42.650;23.386;2023-03-23T08:53:57;3.73;;;3.40;;
7110;SDS011;3597;42.650;23.386;2023-03-23T08:56:23;2.60;;;2.60;;
7110;SDS011;3597;42.650;23.386;2023-03-23T08:58:49;2.20;;;2.10;;
7110;SDS011;3597;42.650;23.386;2023-03-23T09:01:14;2.77;;;2.67;;
7110;SDS011;3597;42.650;23.386;2023-03-23T09:03:40;3.10;;;3.00;;
7110;SDS011;3597;42.650;23.386;2023-03-23T09:06:07;2.50;;;2.50;;
7110;SDS011;3597;42.650;23.386;2023-03-23T09:08:34;2.47;;;2.47;;
7110;SDS011;3597;42.650;23.386;2023-03-23T09:11:04;2.20;;;2.20;;
7110;SDS011;3597;42.650;23.386;2023-03-23T09:13:36;4.83;;;2.87;;
7110;SDS011;3597;42.650;23.386;2023-03-23T09:16:03;8.63;;;3.27;;
7110;SDS011;3597;42.650;23.386;2023-03-23T09:18:30;3.07;;;2.87;;
7110;SDS011;3597;42.650;23.386;2023-03-23T09:20:57;2.10;;;2.10;;
7110;SDS011;3597;42.650;23.386;2023-03-23T09:23:23;2.03;;;2.03;;
7110;SDS011;3597;42.650;23.386;2023-03-23T09:25:49;2.33;;;2.33;;
7110;SDS011;3597;42.650;23.386;2023-03-23T09:28:16;2.80;;;2.70;;
7110;SDS011;3597;42.650;23.386;2023-03-23T09:30:41;2.57;;;2.57;;
7110;SDS011;3597;42.650;23.386;2023-03-23T09:33:07;4.30;;;2.87;;
7110;SDS011;3597;42.650;23.386;2023-03-23T09:35:33;2.27;;;2.17;;
7110;SDS011;3597;42.650;23.386;2023-03-23T09:38:00;2.70;;;2.60;;
7110;SDS011;3597;42.650;23.386;2023-03-23T09:40:28;2.47;;;2.47;;
7110;SDS011;3597;42.650;23.386;2023-03-23T09:45:52;2.70;;;2.50;;
7110;SDS011;3597;42.650;23.386;2023-03-23T09:51:19;2.60;;;2.50;;
7110;SDS011;3597;42.650;23.386;2023-03-23T09:54:03;2.40;;;2.30;;
7110;SDS011;3597;42.650;23.386;2023-03-23T09:56:31;2.37;;;2.27;;
7110;SDS011;3597;42.650;23.386;2023-03-23T10:04:40;2.83;;;2.63;;
7110;SDS011;3597;42.650;23.386;2023-03-23T10:07:15;2.20;;;2.20;;
7110;SDS011;3597;42.650;23.386;2023-03-23T10:09:43;2.07;;;2.07;;
7110;SDS011;3597;42.650;23.386;2023-03-23T10:12:14;2.50;;;2.43;;
7110;SDS011;3597;42.650;23.386;2023-03-23T10:17:13;2.70;;;2.60;;
7110;SDS011;3597;42.650;23.386;2023-03-23T10:19:56;2.53;;;2.53;;
7110;SDS011;3597;42.650;23.386;2023-03-23T10:22:43;1.97;;;1.97;;
7110;SDS011;3597;42.650;23.386;2023-03-23T10:25:16;2.53;;;2.50;;
7110;SDS011;3597;42.650;23.386;2023-03-23T10:27:58;2.00;;;2.00;;
7110;SDS011;3597;42.650;23.386;2023-03-23T10:30:41;2.10;;;2.10;;
7110;SDS011;3597;42.650;23.386;2023-03-23T10:33:13;3.03;;;2.80;;
7110;SDS011;3597;42.650;23.386;2023-03-23T10:35:45;1.97;;;1.87;;
7110;SDS011;3597;42.650;23.386;2023-03-23T10:38:26;2.03;;;2.03;;
7110;SDS011;3597;42.650;23.386;2023-03-23T10:41:11;2.30;;;2.30;;
7110;SDS011;3597;42.650;23.386;2023-03-23T10:43:38;2.40;;;2.20;;
7110;SDS011;3597;42.650;23.386;2023-03-23T10:48:58;4.53;;;2.40;;
7110;SDS011;3597;42.650;23.386;2023-03-23T10:51:30;2.20;;;2.20;;
7110;SDS011;3597;42.650;23.386;2023-03-23T10:54:00;7.37;;;2.40;;
7110;SDS011;3597;42.650;23.386;2023-03-23T10:56:28;2.17;;;2.17;;
7110;SDS011;3597;42.650;23.386;2023-03-23T10:58:59;5.47;;;5.07;;
7110;SDS011;3597;42.650;23.386;2023-03-23T11:01:33;2.70;;;2.60;;
7110;SDS011;3597;42.650;23.386;2023-03-23T11:04:00;2.60;;;2.47;;
7110;SDS011;3597;42.650;23.386;2023-03-23T11:06:30;2.90;;;2.70;;
7110;SDS011;3597;42.650;23.386;2023-03-23T11:09:01;2.23;;;2.07;;
7110;SDS011;3597;42.650;23.386;2023-03-23T11:11:32;7.33;;;2.50;;
7110;SDS011;3597;42.650;23.386;2023-03-23T11:14:12;2.17;;;2.13;;
7110;SDS011;3597;42.650;23.386;2023-03-23T11:17:00;3.07;;;2.80;;
7110;SDS011;3597;42.650;23.386;2023-03-23T11:19:31;5.80;;;2.07;;
7110;SDS011;3597;42.650;23.386;2023-03-23T11:24:36;2.53;;;2.30;;
7110;SDS011;3597;42.650;23.386;2023-03-23T11:27:06;2.53;;;2.53;;
7110;SDS011;3597;42.650;23.386;2023-03-23T11:29:33;2.30;;;2.30;;
7110;SDS011;3597;42.650;23.386;2023-03-23T11:34:30;5.60;;;3.60;;
7110;SDS011;3597;42.650;23.386;2023-03-23T11:39:31;2.80;;;2.70;;
7110;SDS011;3597;42.650;23.386;2023-03-23T11:42:18;2.87;;;2.87;;
7110;SDS011;3597;42.650;23.386;2023-03-23T11:44:46;2.30;;;2.20;;
7110;SDS011;3597;42.650;23.386;2023-03-23T11:47:22;2.20;;;2.20;;
7110;SDS011;3597;42.650;23.386;2023-03-23T11:58:09;4.40;;;2.63;;
7110;SDS011;3597;42.650;23.386;2023-03-23T12:00:38;2.03;;;2.03;;
7110;SDS011;3597;42.650;23.386;2023-03-23T12:06:05;2.33;;;2.33;;
7110;SDS011;3597;42.650;23.386;2023-03-23T12:11:35;2.20;;;2.20;;
7110;SDS011;3597;42.650;23.386;2023-03-23T12:17:18;2.57;;;2.47;;
7110;SDS011;3597;42.650;23.386;2023-03-23T12:19:53;2.10;;;2.00;;
7110;SDS011;3597;42.650;23.386;2023-03-23T12:33:45;2.57;;;2.47;;
7110;SDS011;3597;42.650;23.386;2023-03-23T12:45:02;2.87;;;2.67;;
7110;SDS011;3597;42.650;23.386;2023-03-23T12:47:39;3.10;;;2.33;;
7110;SDS011;3597;42.650;23.386;2023-03-23T12:50:20;5.90;;;2.57;;
7110;SDS011;3597;42.650;23.386;2023-03-23T12:52:55;3.20;;;2.93;;
7110;SDS011;3597;42.650;23.386;2023-03-23T12:55:44;2.23;;;2.23;;
7110;SDS011;3597;42.650;23.386;2023-03-23T12:58:22;6.87;;;2.70;;
7110;SDS011;3597;42.650;23.386;2023-03-23T13:06:38;2.67;;;2.67;;
7110;SDS011;3597;42.650;23.386;2023-03-23T13:09:07;2.50;;;2.50;;
7110;SDS011;3597;42.650;23.386;2023-03-23T13:11:37;4.20;;;3.03;;
7110;SDS011;3597;42.650;23.386;2023-03-23T13:24:51;2.50;;;2.50;;
7110;SDS011;3597;42.650;23.386;2023-03-23T13:27:27;2.40;;;2.30;;
7110;SDS011;3597;42.650;23.386;2023-03-23T13:29:54;2.00;;;2.00;;
7110;SDS011;3597;42.650;23.386;2023-03-23T13:32:20;2.43;;;2.33;;
7110;SDS011;3597;42.650;23.386;2023-03-23T13:34:55;3.30;;;3.00;;
7110;SDS011;3597;42.650;23.386;2023-03-23T13:37:22;2.77;;;2.67;;
7110;SDS011;3597;42.650;23.386;2023-03-23T13:42:19;2.43;;;2.43;;
7110;SDS011;3597;42.650;23.386;2023-03-23T13:52:23;2.60;;;2.50;;
7110;SDS011;3597;42.650;23.386;2023-03-23T14:08:23;2.20;;;2.10;;
7110;SDS011;3597;42.650;23.386;2023-03-23T14:10:57;2.30;;;2.30;;
7110;SDS011;3597;42.650;23.386;2023-03-23T14:13:35;2.20;;;2.20;;
7110;SDS011;3597;42.650;23.386;2023-03-23T14:19:21;1.90;;;1.90;;
7110;SDS011;3597;42.650;23.386;2023-03-23T14:21:59;2.10;;;2.10;;
7110;SDS011;3597;42.650;23.386;2023-03-23T14:24:29;1.67;;;1.67;;
7110;SDS011;3597;42.650;23.386;2023-03-23T14:27:08;2.17;;;2.07;;
7110;SDS011;3597;42.650;23.386;2023-03-23T14:29:37;2.10;;;2.10;;
7110;SDS011;3597;42.650;23.386;2023-03-23T14:32:05;2.30;;;2.30;;
7110;SDS011;3597;42.650;23.386;2023-03-23T14:34:33;2.10;;;2.10;;
7110;SDS011;3597;42.650;23.386;2023-03-23T14:36:59;2.27;;;2.20;;
7110;SDS011;3597;42.650;23.386;2023-03-23T14:39:29;1.80;;;1.80;;
7110;SDS011;3597;42.650;23.386;2023-03-23T14:42:06;1.90;;;1.90;;
7110;SDS011;3597;42.650;23.386;2023-03-23T14:44:37;2.40;;;2.40;;
7110;SDS011;3597;42.650;23.386;2023-03-23T14:47:06;1.80;;;1.80;;
7110;SDS011;3597;42.650;23.386;2023-03-23T14:49:36;2.30;;;2.20;;
7110;SDS011;3597;42.650;23.386;2023-03-23T14:54:36;2.30;;;2.23;;
7110;SDS011;3597;42.650;23.386;2023-03-23T14:57:49;2.20;;;2.20;;
7110;SDS011;3597;42.650;23.386;2023-03-23T14:59:49;2.03;;;2.03;;
7110;SDS011;3597;42.650;23.386;2023-03-23T15:04:47;2.10;;;2.10;;
7110;SDS011;3597;42.650;23.386;2023-03-23T15:07:13;2.23;;;2.07;;
7110;SDS011;3597;42.650;23.386;2023-03-23T15:09:42;1.97;;;1.97;;
7110;SDS011;3597;42.650;23.386;2023-03-23T15:12:09;2.53;;;2.47;;
7110;SDS011;3597;42.650;23.386;2023-03-23T15:14:59;2.67;;;2.53;;
7110;SDS011;3597;42.650;23.386;2023-03-23T15:17:27;2.10;;;2.10;;
7110;SDS011;3597;42.650;23.386;2023-03-23T15:19:54;2.20;;;2.10;;
7110;SDS011;3597;42.650;23.386;2023-03-23T15:22:25;2.13;;;2.13;;
7110;SDS011;3597;42.650;23.386;2023-03-23T15:25:09;2.17;;;2.17;;
7110;SDS011;3597;42.650;23.386;2023-03-23T15:27:40;2.03;;;2.03;;
7110;SDS011;3597;42.650;23.386;2023-03-23T15:32:49;2.90;;;2.73;;
7110;SDS011;3597;42.650;23.386;2023-03-23T15:35:17;2.23;;;2.20;;
7110;SDS011;3597;42.650;23.386;2023-03-23T15:37:49;2.30;;;2.20;;
7110;SDS011;3597;42.650;23.386;2023-03-23T15:40:20;2.40;;;2.40;;
7110;SDS011;3597;42.650;23.386;2023-03-23T15:42:48;3.40;;;1.90;;
7110;SDS011;3597;42.650;23.386;2023-03-23T15:50:10;2.00;;;2.00;;
7110;SDS011;3597;42.650;23.386;2023-03-23T15:52:38;2.07;;;2.03;;
7110;SDS011;3597;42.650;23.386;2023-03-23T15:55:15;1.90;;;1.90;;
7110;SDS011;3597;42.650;23.386;2023-03-23T15:57:43;2.40;;;2.20;;
7110;SDS011;3597;42.650;23.386;2023-03-23T16:00:09;2.50;;;2.37;;
7110;SDS011;3597;42.650;23.386;2023-03-23T16:02:36;1.90;;;1.90;;
7110;SDS011;3597;42.650;23.386;2023-03-23T16:05:02;1.70;;;1.70;;
7110;SDS011;3597;42.650;23.386;2023-03-23T16:07:27;2.30;;;2.30;;
7110;SDS011;3597;42.650;23.386;2023-03-23T16:09:52;2.40;;;2.30;;
7110;SDS011;3597;42.650;23.386;2023-03-23T16:12:18;1.93;;;1.93;;
7110;SDS011;3597;42.650;23.386;2023-03-23T16:14:43;2.20;;;2.00;;
7110;SDS011;3597;42.650;23.386;2023-03-23T16:17:15;2.77;;;2.27;;
7110;SDS011;3597;42.650;23.386;2023-03-23T16:19:43;6.93;;;2.30;;
7110;SDS011;3597;42.650;23.386;2023-03-23T16:22:08;2.47;;;2.30;;
7110;SDS011;3597;42.650;23.386;2023-03-23T16:24:34;2.10;;;2.10;;
7110;SDS011;3597;42.650;23.386;2023-03-23T16:26:59;3.57;;;2.43;;
7110;SDS011;3597;42.650;23.386;2023-03-23T16:29:24;2.13;;;2.13;;
7110;SDS011;3597;42.650;23.386;2023-03-23T16:31:50;1.87;;;1.87;;
7110;SDS011;3597;42.650;23.386;2023-03-23T16:34:15;3.13;;;2.20;;
7110;SDS011;3597;42.650;23.386;2023-03-23T16:36:40;2.00;;;2.00;;
7110;SDS011;3597;42.650;23.386;2023-03-23T16:39:06;1.80;;;1.80;;
7110;SDS011;3597;42.650;23.386;2023-03-23T16:41:31;1.90;;;1.90;;
7110;SDS011;3597;42.650;23.386;2023-03-23T16:43:57;2.60;;;2.50;;
7110;SDS011;3597;42.650;23.386;2023-03-23T16:46:23;2.40;;;2.40;;
7110;SDS011;3597;42.650;23.386;2023-03-23T16:48:48;3.10;;;2.90;;
7110;SDS011;3597;42.650;23.386;2023-03-23T16:51:13;2.60;;;2.50;;
7110;SDS011;3597;42.650;23.386;2023-03-23T16:53:39;3.80;;;2.30;;
7110;SDS011;3597;42.650;23.386;2023-03-23T16:56:06;3.60;;;3.43;;
7110;SDS011;3597;42.650;23.386;2023-03-23T16:58:31;2.20;;;2.20;;
7110;SDS011;3597;42.650;23.386;2023-03-23T17:00:56;2.13;;;2.13;;
7110;SDS011;3597;42.650;23.386;2023-03-23T17:03:22;2.40;;;2.23;;
7110;SDS011;3597;42.650;23.386;2023-03-23T17:05:48;2.30;;;2.30;;
7110;SDS011;3597;42.650;23.386;2023-03-23T17:08:14;2.43;;;2.33;;
7110;SDS011;3597;42.650;23.386;2023-03-23T17:10:41;2.27;;;2.20;;
7110;SDS011;3597;42.650;23.386;2023-03-23T17:13:07;2.13;;;2.13;;
7110;SDS011;3597;42.650;23.386;2023-03-23T17:15:35;2.80;;;2.70;;
7110;SDS011;3597;42.650;23.386;2023-03-23T17:18:05;3.70;;;3.30;;
7110;SDS011;3597;42.650;23.386;2023-03-23T17:20:31;3.17;;;2.93;;
7110;SDS011;3597;42.650;23.386;2023-03-23T17:22:56;3.33;;;3.23;;
7110;SDS011;3597;42.650;23.386;2023-03-23T17:25:23;2.70;;;2.70;;